Search for airport 
image banner adimage banner adimage banner ad
image banner ad

CA86 - Northridge Hospital

Located in Los Angeles, United States

ICAO - CA86, IATA -

Data provided by Airmate  

General information

Coordinates: N34°13'12" W118°31'57"
Elevation is 845 feet MSL.
Magnetic variation is 14° East
View others Airports in California

Operational data

Special qualification required
Current time UTC:
Current local time:
Weather at : KVNY - Van Nuys ( 4 km )
METAR: KVNY 211205Z AUTO 14004KT 6SM HZ OVC005 17/14 A2994 RMK AO2 T01670139
TAF: KVNY 211159Z 2112/2212 13006KT 6SM BR OVC004 FM211400 VRB03KT P6SM OVC006 FM211530 12007KT P6SM SKC FM212100 14010KT P6SM SKC FM220300 12006KT P6SM SKC FM220500 VRB03KT P6SM SKC FM221100 VRB03KT P6SM BKN007
View NOTAMs / SUP AIP / TFR affecting this airport [VIEW]
Communications frequencies: [VIEW]

Runways:

Airport contact information

Address: Los Angeles United States

Satellite view of CA86